sensor_id;sensor_type;location;lat;lon;timestamp;P1;durP1;ratioP1;P2;durP2;ratioP2
41333;SDS011;27078;46.428;6.256;2023-04-01T00:00:31;5.60;;;0.70;;
41333;SDS011;27078;46.428;6.256;2023-04-01T00:02:57;3.88;;;0.73;;
41333;SDS011;27078;46.428;6.256;2023-04-01T00:05:22;3.35;;;0.60;;
41333;SDS011;27078;46.428;6.256;2023-04-01T00:07:49;6.78;;;0.80;;
41333;SDS011;27078;46.428;6.256;2023-04-01T00:10:15;4.05;;;0.75;;
41333;SDS011;27078;46.428;6.256;2023-04-01T00:12:40;3.90;;;0.60;;
41333;SDS011;27078;46.428;6.256;2023-04-01T00:15:06;2.88;;;0.50;;
41333;SDS011;27078;46.428;6.256;2023-04-01T00:17:33;4.43;;;0.50;;
41333;SDS011;27078;46.428;6.256;2023-04-01T00:19:59;5.30;;;0.70;;
41333;SDS011;27078;46.428;6.256;2023-04-01T00:22:24;6.85;;;0.70;;
41333;SDS011;27078;46.428;6.256;2023-04-01T00:24:51;7.88;;;0.70;;
41333;SDS011;27078;46.428;6.256;2023-04-01T00:27:16;5.90;;;0.88;;
41333;SDS011;27078;46.428;6.256;2023-04-01T00:29:42;7.47;;;0.60;;
41333;SDS011;27078;46.428;6.256;2023-04-01T00:32:08;6.13;;;0.70;;
41333;SDS011;27078;46.428;6.256;2023-04-01T00:34:34;7.47;;;0.65;;
41333;SDS011;27078;46.428;6.256;2023-04-01T00:36:59;5.47;;;0.40;;
41333;SDS011;27078;46.428;6.256;2023-04-01T00:39:25;3.70;;;0.45;;
41333;SDS011;27078;46.428;6.256;2023-04-01T00:41:54;3.53;;;0.55;;
41333;SDS011;27078;46.428;6.256;2023-04-01T00:44:23;6.53;;;0.73;;
41333;SDS011;27078;46.428;6.256;2023-04-01T00:46:49;6.88;;;1.00;;
41333;SDS011;27078;46.428;6.256;2023-04-01T00:49:17;3.97;;;0.52;;
41333;SDS011;27078;46.428;6.256;2023-04-01T00:51:45;5.00;;;0.75;;
41333;SDS011;27078;46.428;6.256;2023-04-01T00:54:15;4.38;;;0.65;;
41333;SDS011;27078;46.428;6.256;2023-04-01T00:56:46;6.38;;;0.70;;
41333;SDS011;27078;46.428;6.256;2023-04-01T00:59:19;3.35;;;0.45;;
41333;SDS011;27078;46.428;6.256;2023-04-01T01:01:47;3.75;;;0.52;;
41333;SDS011;27078;46.428;6.256;2023-04-01T01:04:22;5.32;;;0.52;;
41333;SDS011;27078;46.428;6.256;2023-04-01T01:17:58;2.60;;;0.30;;
41333;SDS011;27078;46.428;6.256;2023-04-01T01:26:03;3.95;;;0.50;;
41333;SDS011;27078;46.428;6.256;2023-04-01T01:37:04;5.20;;;0.60;;
41333;SDS011;27078;46.428;6.256;2023-04-01T01:39:38;5.22;;;0.55;;
41333;SDS011;27078;46.428;6.256;2023-04-01T01:42:08;5.15;;;0.60;;
41333;SDS011;27078;46.428;6.256;2023-04-01T01:44:36;4.75;;;0.70;;
41333;SDS011;27078;46.428;6.256;2023-04-01T01:47:03;6.28;;;0.63;;
41333;SDS011;27078;46.428;6.256;2023-04-01T01:49:28;6.38;;;0.90;;
41333;SDS011;27078;46.428;6.256;2023-04-01T01:51:58;2.90;;;0.50;;
41333;SDS011;27078;46.428;6.256;2023-04-01T01:54:23;3.92;;;0.65;;
41333;SDS011;27078;46.428;6.256;2023-04-01T01:56:49;4.05;;;0.52;;
41333;SDS011;27078;46.428;6.256;2023-04-01T01:59:20;3.63;;;0.50;;
41333;SDS011;27078;46.428;6.256;2023-04-01T02:01:49;5.72;;;0.63;;
41333;SDS011;27078;46.428;6.256;2023-04-01T02:04:18;3.80;;;0.50;;
41333;SDS011;27078;46.428;6.256;2023-04-01T02:06:50;5.63;;;0.60;;
41333;SDS011;27078;46.428;6.256;2023-04-01T02:09:23;4.07;;;0.40;;
41333;SDS011;27078;46.428;6.256;2023-04-01T02:11:49;5.25;;;0.52;;
41333;SDS011;27078;46.428;6.256;2023-04-01T02:14:36;5.03;;;0.60;;
41333;SDS011;27078;46.428;6.256;2023-04-01T02:17:09;5.78;;;0.63;;
41333;SDS011;27078;46.428;6.256;2023-04-01T02:19:39;3.67;;;0.43;;
41333;SDS011;27078;46.428;6.256;2023-04-01T02:22:11;4.50;;;0.70;;
41333;SDS011;27078;46.428;6.256;2023-04-01T02:24:41;4.65;;;0.50;;
41333;SDS011;27078;46.428;6.256;2023-04-01T02:27:09;3.72;;;0.60;;
41333;SDS011;27078;46.428;6.256;2023-04-01T02:29:35;4.30;;;0.68;;
41333;SDS011;27078;46.428;6.256;2023-04-01T02:32:01;3.95;;;0.40;;
41333;SDS011;27078;46.428;6.256;2023-04-01T02:34:27;3.17;;;0.47;;
41333;SDS011;27078;46.428;6.256;2023-04-01T02:36:54;2.35;;;0.40;;
41333;SDS011;27078;46.428;6.256;2023-04-01T02:39:21;3.47;;;0.57;;
41333;SDS011;27078;46.428;6.256;2023-04-01T02:41:47;4.10;;;0.50;;
41333;SDS011;27078;46.428;6.256;2023-04-01T02:44:13;3.20;;;0.50;;
41333;SDS011;27078;46.428;6.256;2023-04-01T02:46:40;2.35;;;0.40;;
41333;SDS011;27078;46.428;6.256;2023-04-01T02:49:05;2.60;;;0.35;;
41333;SDS011;27078;46.428;6.256;2023-04-01T02:51:31;1.95;;;0.30;;
41333;SDS011;27078;46.428;6.256;2023-04-01T02:53:56;2.78;;;0.43;;
41333;SDS011;27078;46.428;6.256;2023-04-01T02:56:22;3.75;;;0.50;;
41333;SDS011;27078;46.428;6.256;2023-04-01T02:58:47;3.50;;;0.50;;
41333;SDS011;27078;46.428;6.256;2023-04-01T03:01:13;3.95;;;0.40;;
41333;SDS011;27078;46.428;6.256;2023-04-01T03:03:39;3.47;;;0.50;;
41333;SDS011;27078;46.428;6.256;2023-04-01T03:06:06;3.65;;;0.40;;
41333;SDS011;27078;46.428;6.256;2023-04-01T03:08:36;3.13;;;0.50;;
41333;SDS011;27078;46.428;6.256;2023-04-01T03:11:01;2.85;;;0.40;;
41333;SDS011;27078;46.428;6.256;2023-04-01T03:13:27;3.60;;;0.70;;
41333;SDS011;27078;46.428;6.256;2023-04-01T03:15:52;3.83;;;0.47;;
41333;SDS011;27078;46.428;6.256;2023-04-01T03:18:18;6.32;;;0.70;;
41333;SDS011;27078;46.428;6.256;2023-04-01T03:20:44;4.53;;;0.70;;
41333;SDS011;27078;46.428;6.256;2023-04-01T03:23:10;4.70;;;0.70;;
41333;SDS011;27078;46.428;6.256;2023-04-01T03:25:35;5.07;;;0.73;;
41333;SDS011;27078;46.428;6.256;2023-04-01T03:28:00;3.05;;;0.60;;
41333;SDS011;27078;46.428;6.256;2023-04-01T03:30:26;3.78;;;0.70;;
41333;SDS011;27078;46.428;6.256;2023-04-01T03:32:51;5.50;;;0.63;;
41333;SDS011;27078;46.428;6.256;2023-04-01T03:35:17;5.70;;;0.70;;
41333;SDS011;27078;46.428;6.256;2023-04-01T03:37:43;3.40;;;0.60;;
41333;SDS011;27078;46.428;6.256;2023-04-01T03:40:08;4.35;;;0.75;;
41333;SDS011;27078;46.428;6.256;2023-04-01T03:42:34;7.55;;;0.70;;
41333;SDS011;27078;46.428;6.256;2023-04-01T03:45:00;6.28;;;0.73;;
41333;SDS011;27078;46.428;6.256;2023-04-01T03:47:25;4.82;;;0.80;;
41333;SDS011;27078;46.428;6.256;2023-04-01T03:49:51;5.05;;;0.80;;
41333;SDS011;27078;46.428;6.256;2023-04-01T03:52:16;5.30;;;0.93;;
41333;SDS011;27078;46.428;6.256;2023-04-01T03:54:41;4.40;;;0.77;;
41333;SDS011;27078;46.428;6.256;2023-04-01T03:57:07;5.55;;;0.70;;
41333;SDS011;27078;46.428;6.256;2023-04-01T03:59:32;4.82;;;0.63;;
41333;SDS011;27078;46.428;6.256;2023-04-01T04:01:57;3.85;;;0.70;;
41333;SDS011;27078;46.428;6.256;2023-04-01T04:04:23;4.78;;;0.57;;
41333;SDS011;27078;46.428;6.256;2023-04-01T04:06:48;3.35;;;0.70;;
41333;SDS011;27078;46.428;6.256;2023-04-01T04:09:13;3.42;;;0.60;;
41333;SDS011;27078;46.428;6.256;2023-04-01T04:11:39;6.28;;;0.73;;
41333;SDS011;27078;46.428;6.256;2023-04-01T04:14:04;5.70;;;0.88;;
41333;SDS011;27078;46.428;6.256;2023-04-01T04:16:30;6.25;;;0.93;;
41333;SDS011;27078;46.428;6.256;2023-04-01T04:18:55;3.53;;;0.63;;
41333;SDS011;27078;46.428;6.256;2023-04-01T04:21:21;5.93;;;1.15;;
41333;SDS011;27078;46.428;6.256;2023-04-01T04:23:46;4.43;;;0.88;;
41333;SDS011;27078;46.428;6.256;2023-04-01T04:26:13;4.22;;;0.80;;
41333;SDS011;27078;46.428;6.256;2023-04-01T04:28:39;5.82;;;0.75;;
41333;SDS011;27078;46.428;6.256;2023-04-01T04:31:06;5.05;;;0.63;;
41333;SDS011;27078;46.428;6.256;2023-04-01T04:33:32;5.40;;;0.70;;
41333;SDS011;27078;46.428;6.256;2023-04-01T04:35:59;4.13;;;0.60;;
41333;SDS011;27078;46.428;6.256;2023-04-01T04:38:25;4.13;;;0.70;;
41333;SDS011;27078;46.428;6.256;2023-04-01T04:40:51;4.75;;;0.73;;
41333;SDS011;27078;46.428;6.256;2023-04-01T04:43:17;5.03;;;0.57;;
41333;SDS011;27078;46.428;6.256;2023-04-01T04:45:43;4.93;;;0.70;;
41333;SDS011;27078;46.428;6.256;2023-04-01T04:48:10;4.68;;;0.77;;
41333;SDS011;27078;46.428;6.256;2023-04-01T04:50:43;4.03;;;0.82;;
41333;SDS011;27078;46.428;6.256;2023-04-01T04:53:10;5.53;;;0.57;;
41333;SDS011;27078;46.428;6.256;2023-04-01T04:55:36;7.00;;;0.82;;
41333;SDS011;27078;46.428;6.256;2023-04-01T04:58:01;5.32;;;0.70;;
41333;SDS011;27078;46.428;6.256;2023-04-01T05:00:27;5.72;;;0.68;;
41333;SDS011;27078;46.428;6.256;2023-04-01T05:02:52;5.85;;;0.68;;
41333;SDS011;27078;46.428;6.256;2023-04-01T05:05:18;6.20;;;0.85;;
41333;SDS011;27078;46.428;6.256;2023-04-01T05:07:43;4.75;;;0.88;;
41333;SDS011;27078;46.428;6.256;2023-04-01T05:10:08;5.40;;;0.70;;
41333;SDS011;27078;46.428;6.256;2023-04-01T05:12:34;4.43;;;0.68;;
41333;SDS011;27078;46.428;6.256;2023-04-01T05:15:05;4.97;;;0.60;;
41333;SDS011;27078;46.428;6.256;2023-04-01T05:17:31;5.57;;;0.73;;
41333;SDS011;27078;46.428;6.256;2023-04-01T05:19:56;6.00;;;0.88;;
41333;SDS011;27078;46.428;6.256;2023-04-01T05:22:22;3.72;;;0.50;;
41333;SDS011;27078;46.428;6.256;2023-04-01T05:24:47;5.53;;;0.60;;
41333;SDS011;27078;46.428;6.256;2023-04-01T05:27:13;4.25;;;0.60;;
41333;SDS011;27078;46.428;6.256;2023-04-01T05:29:38;2.45;;;0.43;;
41333;SDS011;27078;46.428;6.256;2023-04-01T05:32:03;3.28;;;0.50;;
41333;SDS011;27078;46.428;6.256;2023-04-01T05:34:28;3.00;;;0.43;;
41333;SDS011;27078;46.428;6.256;2023-04-01T05:36:54;5.18;;;0.55;;
41333;SDS011;27078;46.428;6.256;2023-04-01T05:39:19;6.28;;;0.80;;
41333;SDS011;27078;46.428;6.256;2023-04-01T05:41:45;2.55;;;0.40;;
41333;SDS011;27078;46.428;6.256;2023-04-01T05:44:11;2.72;;;0.45;;
41333;SDS011;27078;46.428;6.256;2023-04-01T05:46:37;4.70;;;0.57;;
41333;SDS011;27078;46.428;6.256;2023-04-01T05:49:02;3.53;;;0.70;;
41333;SDS011;27078;46.428;6.256;2023-04-01T05:51:28;3.20;;;0.65;;
41333;SDS011;27078;46.428;6.256;2023-04-01T05:53:53;3.85;;;0.45;;
41333;SDS011;27078;46.428;6.256;2023-04-01T05:56:18;4.40;;;0.45;;
41333;SDS011;27078;46.428;6.256;2023-04-01T05:58:46;5.20;;;0.68;;
41333;SDS011;27078;46.428;6.256;2023-04-01T06:01:16;4.00;;;0.80;;
41333;SDS011;27078;46.428;6.256;2023-04-01T06:03:41;4.38;;;0.70;;
41333;SDS011;27078;46.428;6.256;2023-04-01T06:06:14;5.38;;;0.70;;
41333;SDS011;27078;46.428;6.256;2023-04-01T06:08:41;3.60;;;0.60;;
41333;SDS011;27078;46.428;6.256;2023-04-01T06:21:49;5.07;;;0.55;;
41333;SDS011;27078;46.428;6.256;2023-04-01T06:29:55;3.15;;;0.60;;
41333;SDS011;27078;46.428;6.256;2023-04-01T06:32:41;5.32;;;0.80;;
41333;SDS011;27078;46.428;6.256;2023-04-01T06:35:22;2.63;;;0.68;;
41333;SDS011;27078;46.428;6.256;2023-04-01T06:41:20;5.50;;;0.40;;
41333;SDS011;27078;46.428;6.256;2023-04-01T06:49:04;3.38;;;0.50;;
41333;SDS011;27078;46.428;6.256;2023-04-01T06:51:48;2.97;;;0.43;;
41333;SDS011;27078;46.428;6.256;2023-04-01T06:54:26;2.50;;;0.40;;
41333;SDS011;27078;46.428;6.256;2023-04-01T06:56:58;3.03;;;0.57;;
41333;SDS011;27078;46.428;6.256;2023-04-01T06:59:31;3.03;;;0.40;;
41333;SDS011;27078;46.428;6.256;2023-04-01T07:02:15;5.47;;;0.50;;
41333;SDS011;27078;46.428;6.256;2023-04-01T07:04:53;2.58;;;0.40;;
41333;SDS011;27078;46.428;6.256;2023-04-01T07:07:25;2.85;;;0.50;;
41333;SDS011;27078;46.428;6.256;2023-04-01T07:09:57;4.30;;;0.63;;
41333;SDS011;27078;46.428;6.256;2023-04-01T07:14:58;3.47;;;0.63;;
41333;SDS011;27078;46.428;6.256;2023-04-01T07:17:27;4.40;;;0.50;;
41333;SDS011;27078;46.428;6.256;2023-04-01T07:20:11;4.10;;;0.50;;
41333;SDS011;27078;46.428;6.256;2023-04-01T07:22:51;3.15;;;0.57;;
41333;SDS011;27078;46.428;6.256;2023-04-01T07:25:21;3.47;;;0.45;;
41333;SDS011;27078;46.428;6.256;2023-04-01T07:28:13;6.00;;;0.70;;
41333;SDS011;27078;46.428;6.256;2023-04-01T07:33:35;5.50;;;0.52;;
41333;SDS011;27078;46.428;6.256;2023-04-01T07:36:13;3.25;;;0.45;;
41333;SDS011;27078;46.428;6.256;2023-04-01T07:41:32;2.40;;;0.47;;
41333;SDS011;27078;46.428;6.256;2023-04-01T07:44:24;4.53;;;0.40;;
41333;SDS011;27078;46.428;6.256;2023-04-01T07:57:50;3.53;;;0.50;;
41333;SDS011;27078;46.428;6.256;2023-04-01T08:00:44;3.15;;;0.57;;
41333;SDS011;27078;46.428;6.256;2023-04-01T08:03:20;3.65;;;0.40;;
41333;SDS011;27078;46.428;6.256;2023-04-01T08:11:10;3.03;;;0.67;;
41333;SDS011;27078;46.428;6.256;2023-04-01T08:13:55;4.43;;;0.52;;
41333;SDS011;27078;46.428;6.256;2023-04-01T08:16:35;3.80;;;0.50;;
41333;SDS011;27078;46.428;6.256;2023-04-01T08:19:30;3.85;;;0.57;;
41333;SDS011;27078;46.428;6.256;2023-04-01T08:22:03;3.78;;;0.55;;
41333;SDS011;27078;46.428;6.256;2023-04-01T08:24:45;2.75;;;0.57;;
41333;SDS011;27078;46.428;6.256;2023-04-01T08:27:17;1.95;;;0.30;;
41333;SDS011;27078;46.428;6.256;2023-04-01T08:29:51;2.60;;;0.50;;
41333;SDS011;27078;46.428;6.256;2023-04-01T08:32:34;2.53;;;0.43;;
41333;SDS011;27078;46.428;6.256;2023-04-01T08:35:07;3.80;;;0.47;;
41333;SDS011;27078;46.428;6.256;2023-04-01T08:37:40;2.03;;;0.40;;
41333;SDS011;27078;46.428;6.256;2023-04-01T08:49:42;3.50;;;0.40;;
41333;SDS011;27078;46.428;6.256;2023-04-01T09:00:22;3.17;;;0.40;;
41333;SDS011;27078;46.428;6.256;2023-04-01T09:14:31;1.83;;;0.40;;
41333;SDS011;27078;46.428;6.256;2023-04-01T09:28:15;3.83;;;0.65;;
41333;SDS011;27078;46.428;6.256;2023-04-01T09:30:52;1.95;;;0.40;;
41333;SDS011;27078;46.428;6.256;2023-04-01T09:39:37;3.58;;;0.70;;
41333;SDS011;27078;46.428;6.256;2023-04-01T09:44:57;3.03;;;0.55;;
41333;SDS011;27078;46.428;6.256;2023-04-01T10:06:17;2.45;;;0.50;;
41333;SDS011;27078;46.428;6.256;2023-04-01T10:09:10;2.85;;;0.40;;
41333;SDS011;27078;46.428;6.256;2023-04-01T10:17:36;2.80;;;0.50;;
41333;SDS011;27078;46.428;6.256;2023-04-01T10:22:45;1.90;;;0.50;;
41333;SDS011;27078;46.428;6.256;2023-04-01T10:25:23;2.67;;;0.40;;
41333;SDS011;27078;46.428;6.256;2023-04-01T10:33:43;1.77;;;0.35;;
41333;SDS011;27078;46.428;6.256;2023-04-01T10:36:46;2.90;;;0.32;;
41333;SDS011;27078;46.428;6.256;2023-04-01T10:42:04;3.53;;;0.52;;
41333;SDS011;27078;46.428;6.256;2023-04-01T10:47:39;2.75;;;0.50;;
41333;SDS011;27078;46.428;6.256;2023-04-01T11:27:33;1.25;;;0.30;;
41333;SDS011;27078;46.428;6.256;2023-04-01T11:33:28;0.85;;;0.10;;
41333;SDS011;27078;46.428;6.256;2023-04-01T11:41:30;0.30;;;0.03;;
41333;SDS011;27078;46.428;6.256;2023-04-01T11:44:17;0.80;;;0.13;;
41333;SDS011;27078;46.428;6.256;2023-04-01T11:52:53;2.38;;;0.25;;
41333;SDS011;27078;46.428;6.256;2023-04-01T11:58:20;1.63;;;0.30;;
41333;SDS011;27078;46.428;6.256;2023-04-01T12:09:33;0.65;;;0.10;;
41333;SDS011;27078;46.428;6.256;2023-04-01T12:21:05;1.88;;;0.20;;
41333;SDS011;27078;46.428;6.256;2023-04-01T12:32:02;1.60;;;0.20;;
41333;SDS011;27078;46.428;6.256;2023-04-01T12:37:49;1.27;;;0.22;;
41333;SDS011;27078;46.428;6.256;2023-04-01T12:54:40;1.23;;;0.20;;
41333;SDS011;27078;46.428;6.256;2023-04-01T13:16:39;0.52;;;0.20;;
41333;SDS011;27078;46.428;6.256;2023-04-01T13:22:04;0.93;;;0.10;;
41333;SDS011;27078;46.428;6.256;2023-04-01T13:27:18;0.93;;;0.10;;
41333;SDS011;27078;46.428;6.256;2023-04-01T13:29:57;0.63;;;0.17;;
41333;SDS011;27078;46.428;6.256;2023-04-01T13:32:37;1.77;;;0.10;;
41333;SDS011;27078;46.428;6.256;2023-04-01T13:40:33;1.23;;;0.30;;
41333;SDS011;27078;46.428;6.256;2023-04-01T13:46:16;1.85;;;0.30;;
41333;SDS011;27078;46.428;6.256;2023-04-01T13:49:07;3.40;;;0.40;;
41333;SDS011;27078;46.428;6.256;2023-04-01T14:05:44;0.80;;;0.10;;
41333;SDS011;27078;46.428;6.256;2023-04-01T14:17:14;0.30;;;0.10;;
41333;SDS011;27078;46.428;6.256;2023-04-01T14:19:49;1.05;;;0.00;;
41333;SDS011;27078;46.428;6.256;2023-04-01T14:31:18;0.68;;;0.22;;
41333;SDS011;27078;46.428;6.256;2023-04-01T14:50:51;0.63;;;0.10;;
41333;SDS011;27078;46.428;6.256;2023-04-01T14:58:14;1.17;;;0.30;;
41333;SDS011;27078;46.428;6.256;2023-04-01T15:14:24;0.57;;;0.10;;
41333;SDS011;27078;46.428;6.256;2023-04-01T15:17:19;0.63;;;0.10;;
41333;SDS011;27078;46.428;6.256;2023-04-01T15:20:11;0.75;;;0.22;;
41333;SDS011;27078;46.428;6.256;2023-04-01T15:45:36;0.50;;;0.10;;
41333;SDS011;27078;46.428;6.256;2023-04-01T15:48:13;1.23;;;0.17;;
41333;SDS011;27078;46.428;6.256;2023-04-01T15:51:01;1.05;;;0.10;;
41333;SDS011;27078;46.428;6.256;2023-04-01T15:56:44;0.45;;;0.20;;
41333;SDS011;27078;46.428;6.256;2023-04-01T15:59:41;0.63;;;0.20;;
41333;SDS011;27078;46.428;6.256;2023-04-01T16:02:21;0.90;;;0.20;;
41333;SDS011;27078;46.428;6.256;2023-04-01T16:04:58;1.00;;;0.32;;
41333;SDS011;27078;46.428;6.256;2023-04-01T16:07:53;1.35;;;0.30;;
41333;SDS011;27078;46.428;6.256;2023-04-01T16:13:24;0.75;;;0.28;;
41333;SDS011;27078;46.428;6.256;2023-04-01T16:23:58;1.77;;;0.20;;
41333;SDS011;27078;46.428;6.256;2023-04-01T16:26:38;1.05;;;0.28;;
41333;SDS011;27078;46.428;6.256;2023-04-01T16:31:47;0.65;;;0.20;;
41333;SDS011;27078;46.428;6.256;2023-04-01T16:34:38;0.52;;;0.15;;
41333;SDS011;27078;46.428;6.256;2023-04-01T16:37:29;0.83;;;0.10;;
41333;SDS011;27078;46.428;6.256;2023-04-01T16:42:47;0.82;;;0.20;;
41333;SDS011;27078;46.428;6.256;2023-04-01T16:47:57;0.43;;;0.15;;
41333;SDS011;27078;46.428;6.256;2023-04-01T16:58:32;0.80;;;0.20;;
41333;SDS011;27078;46.428;6.256;2023-04-01T17:01:05;0.82;;;0.20;;
41333;SDS011;27078;46.428;6.256;2023-04-01T17:03:41;1.75;;;0.20;;
41333;SDS011;27078;46.428;6.256;2023-04-01T17:11:22;0.88;;;0.20;;
41333;SDS011;27078;46.428;6.256;2023-04-01T17:17:01;1.23;;;0.30;;
41333;SDS011;27078;46.428;6.256;2023-04-01T17:34:31;3.38;;;1.23;;
41333;SDS011;27078;46.428;6.256;2023-04-01T17:40:00;3.42;;;1.48;;
41333;SDS011;27078;46.428;6.256;2023-04-01T17:42:51;2.88;;;0.75;;
41333;SDS011;27078;46.428;6.256;2023-04-01T17:45:33;2.75;;;0.80;;
41333;SDS011;27078;46.428;6.256;2023-04-01T17:48:33;4.00;;;0.82;;
41333;SDS011;27078;46.428;6.256;2023-04-01T17:53:45;3.42;;;0.90;;
41333;SDS011;27078;46.428;6.256;2023-04-01T18:13:14;5.30;;;2.00;;
41333;SDS011;27078;46.428;6.256;2023-04-01T18:24:19;3.75;;;1.70;;
41333;SDS011;27078;46.428;6.256;2023-04-01T18:27:01;3.50;;;1.20;;
41333;SDS011;27078;46.428;6.256;2023-04-01T18:29:33;3.63;;;1.30;;
41333;SDS011;27078;46.428;6.256;2023-04-01T18:32:10;1.35;;;0.68;;
41333;SDS011;27078;46.428;6.256;2023-04-01T18:37:34;2.15;;;0.75;;
41333;SDS011;27078;46.428;6.256;2023-04-01T18:45:51;2.53;;;0.85;;
41333;SDS011;27078;46.428;6.256;2023-04-01T18:51:23;3.47;;;0.90;;
41333;SDS011;27078;46.428;6.256;2023-04-01T18:54:02;2.30;;;0.70;;
41333;SDS011;27078;46.428;6.256;2023-04-01T18:56:39;2.75;;;0.88;;
41333;SDS011;27078;46.428;6.256;2023-04-01T18:59:12;2.53;;;1.02;;
41333;SDS011;27078;46.428;6.256;2023-04-01T19:04:30;2.28;;;0.90;;
41333;SDS011;27078;46.428;6.256;2023-04-01T19:07:21;2.80;;;1.20;;
41333;SDS011;27078;46.428;6.256;2023-04-01T19:15:41;1.88;;;0.60;;
41333;SDS011;27078;46.428;6.256;2023-04-01T19:34:57;1.27;;;0.70;;
41333;SDS011;27078;46.428;6.256;2023-04-01T19:37:28;1.85;;;0.55;;
41333;SDS011;27078;46.428;6.256;2023-04-01T19:40:20;1.38;;;0.60;;
41333;SDS011;27078;46.428;6.256;2023-04-01T19:48:18;1.60;;;0.70;;
41333;SDS011;27078;46.428;6.256;2023-04-01T19:54:02;0.95;;;0.60;;
41333;SDS011;27078;46.428;6.256;2023-04-01T19:59:35;1.88;;;0.80;;
41333;SDS011;27078;46.428;6.256;2023-04-01T20:04:51;1.65;;;0.80;;
41333;SDS011;27078;46.428;6.256;2023-04-01T20:09:58;1.23;;;0.60;;
41333;SDS011;27078;46.428;6.256;2023-04-01T20:15:20;2.55;;;0.80;;
41333;SDS011;27078;46.428;6.256;2023-04-01T20:17:52;2.22;;;0.55;;
41333;SDS011;27078;46.428;6.256;2023-04-01T20:20:23;1.90;;;0.50;;
41333;SDS011;27078;46.428;6.256;2023-04-01T20:22:55;2.75;;;0.77;;
41333;SDS011;27078;46.428;6.256;2023-04-01T20:25:31;2.28;;;0.70;;
41333;SDS011;27078;46.428;6.256;2023-04-01T20:28:13;1.67;;;0.70;;
41333;SDS011;27078;46.428;6.256;2023-04-01T20:30:52;1.75;;;0.73;;
41333;SDS011;27078;46.428;6.256;2023-04-01T20:36:36;1.85;;;0.57;;
41333;SDS011;27078;46.428;6.256;2023-04-01T20:51:05;1.77;;;0.63;;
41333;SDS011;27078;46.428;6.256;2023-04-01T21:04:37;1.42;;;0.40;;
41333;SDS011;27078;46.428;6.256;2023-04-01T21:13:07;0.90;;;0.35;;
41333;SDS011;27078;46.428;6.256;2023-04-01T21:26:12;1.40;;;0.70;;
41333;SDS011;27078;46.428;6.256;2023-04-01T21:42:52;2.03;;;1.15;;
41333;SDS011;27078;46.428;6.256;2023-04-01T22:04:41;0.93;;;0.60;;
41333;SDS011;27078;46.428;6.256;2023-04-01T22:07:19;1.40;;;0.80;;
41333;SDS011;27078;46.428;6.256;2023-04-01T22:17:38;1.35;;;0.70;;
41333;SDS011;27078;46.428;6.256;2023-04-01T22:30:43;0.70;;;0.50;;
41333;SDS011;27078;46.428;6.256;2023-04-01T22:39:04;1.15;;;0.80;;
41333;SDS011;27078;46.428;6.256;2023-04-01T22:44:20;1.38;;;0.57;;
41333;SDS011;27078;46.428;6.256;2023-04-01T22:47:02;0.88;;;0.40;;
41333;SDS011;27078;46.428;6.256;2023-04-01T22:49:39;0.98;;;0.43;;
41333;SDS011;27078;46.428;6.256;2023-04-01T22:55:04;1.40;;;0.40;;
41333;SDS011;27078;46.428;6.256;2023-04-01T23:00:35;0.60;;;0.40;;
41333;SDS011;27078;46.428;6.256;2023-04-01T23:05:31;2.53;;;0.40;;
41333;SDS011;27078;46.428;6.256;2023-04-01T23:10:52;0.80;;;0.40;;
41333;SDS011;27078;46.428;6.256;2023-04-01T23:13:22;1.02;;;0.47;;
41333;SDS011;27078;46.428;6.256;2023-04-01T23:15:54;1.95;;;0.40;;
41333;SDS011;27078;46.428;6.256;2023-04-01T23:21:23;1.92;;;0.52;;
41333;SDS011;27078;46.428;6.256;2023-04-01T23:24:14;1.77;;;0.50;;
41333;SDS011;27078;46.428;6.256;2023-04-01T23:26:52;1.30;;;0.70;;
41333;SDS011;27078;46.428;6.256;2023-04-01T23:29:23;1.25;;;0.50;;
41333;SDS011;27078;46.428;6.256;2023-04-01T23:36:57;0.70;;;0.40;;
41333;SDS011;27078;46.428;6.256;2023-04-01T23:39:36;1.58;;;0.50;;
41333;SDS011;27078;46.428;6.256;2023-04-01T23:42:13;2.08;;;0.43;;
41333;SDS011;27078;46.428;6.256;2023-04-01T23:44:44;1.45;;;0.40;;
41333;SDS011;27078;46.428;6.256;2023-04-01T23:52:43;1.58;;;0.50;;
41333;SDS011;27078;46.428;6.256;2023-04-01T23:55:19;0.80;;;0.43;;
